Joyce, Washington
Current Conditions -  °F | °C
As of 3:53 AM on Monday 24 Nov 2014 (Local Time) from KCLM Reporting Station
Scattered Clouds Scattered Clouds  
Wind Chill: 40°   Ceiling: Unl
Heat Index: 43°   Visibility: 10mi
Dew Point: 35°   Wind: 5mph
Humidity: 74%   Direction: NA
Pressure: 30.32"   Gusts: NA
Location:  48.14°N, 123.74°W
Report Text: KCLM 241153Z AUTO VRB04KT 10SM SCT120 06/02 A3032 RMK AO2 SLP270 70031 T00610017 10072 20039 50000 $
Loading
Personal Weather Stations






























Interactive Weather Map New forecast layout! Learn more

10-Day Weather Forecast

Advertisements
Track Severe Weather on mobile